sensor_id;sensor_type;location;lat;lon;timestamp;P1;durP1;ratioP1;P2;durP2;ratioP2
19111;SDS011;9688;51.906;8.376;2022-08-01T00:01:06;23.27;;;11.77;;
19111;SDS011;9688;51.906;8.376;2022-08-01T00:04:11;20.57;;;11.67;;
19111;SDS011;9688;51.906;8.376;2022-08-01T00:07:15;21.80;;;12.80;;
19111;SDS011;9688;51.906;8.376;2022-08-01T00:10:19;20.47;;;12.23;;
19111;SDS011;9688;51.906;8.376;2022-08-01T00:13:24;15.00;;;11.17;;
19111;SDS011;9688;51.906;8.376;2022-08-01T00:16:30;20.93;;;13.00;;
19111;SDS011;9688;51.906;8.376;2022-08-01T00:19:35;18.90;;;12.00;;
19111;SDS011;9688;51.906;8.376;2022-08-01T00:22:40;28.93;;;13.30;;
19111;SDS011;9688;51.906;8.376;2022-08-01T00:25:45;24.37;;;14.00;;
19111;SDS011;9688;51.906;8.376;2022-08-01T00:28:50;22.00;;;13.60;;
19111;SDS011;9688;51.906;8.376;2022-08-01T00:31:56;26.50;;;14.17;;
19111;SDS011;9688;51.906;8.376;2022-08-01T00:35:01;22.37;;;13.33;;
19111;SDS011;9688;51.906;8.376;2022-08-01T00:38:05;19.37;;;12.57;;
19111;SDS011;9688;51.906;8.376;2022-08-01T00:41:10;21.10;;;11.73;;
19111;SDS011;9688;51.906;8.376;2022-08-01T00:44:15;17.90;;;10.60;;
19111;SDS011;9688;51.906;8.376;2022-08-01T00:47:21;16.43;;;10.10;;
19111;SDS011;9688;51.906;8.376;2022-08-01T00:50:26;15.43;;;9.23;;
19111;SDS011;9688;51.906;8.376;2022-08-01T00:53:31;20.87;;;10.40;;
19111;SDS011;9688;51.906;8.376;2022-08-01T00:56:37;20.40;;;9.80;;
19111;SDS011;9688;51.906;8.376;2022-08-01T00:59:42;17.63;;;10.13;;
19111;SDS011;9688;51.906;8.376;2022-08-01T01:02:48;16.63;;;9.63;;
19111;SDS011;9688;51.906;8.376;2022-08-01T01:05:55;16.87;;;10.23;;
19111;SDS011;9688;51.906;8.376;2022-08-01T01:09:11;16.40;;;9.83;;
19111;SDS011;9688;51.906;8.376;2022-08-01T01:12:27;17.47;;;10.93;;
19111;SDS011;9688;51.906;8.376;2022-08-01T01:15:37;22.67;;;11.40;;
19111;SDS011;9688;51.906;8.376;2022-08-01T01:18:47;19.63;;;11.37;;
19111;SDS011;9688;51.906;8.376;2022-08-01T01:22:00;23.03;;;11.77;;
19111;SDS011;9688;51.906;8.376;2022-08-01T01:25:40;17.10;;;11.33;;
19111;SDS011;9688;51.906;8.376;2022-08-01T01:28:58;18.50;;;11.13;;
19111;SDS011;9688;51.906;8.376;2022-08-01T01:32:12;24.93;;;12.97;;
19111;SDS011;9688;51.906;8.376;2022-08-01T01:35:22;22.37;;;12.47;;
19111;SDS011;9688;51.906;8.376;2022-08-01T01:38:32;21.17;;;12.17;;
19111;SDS011;9688;51.906;8.376;2022-08-01T01:41:38;21.10;;;12.03;;
19111;SDS011;9688;51.906;8.376;2022-08-01T01:44:45;18.23;;;11.17;;
19111;SDS011;9688;51.906;8.376;2022-08-01T01:47:51;18.57;;;11.13;;
19111;SDS011;9688;51.906;8.376;2022-08-01T01:50:57;19.43;;;11.27;;
19111;SDS011;9688;51.906;8.376;2022-08-01T01:54:02;18.47;;;10.63;;
19111;SDS011;9688;51.906;8.376;2022-08-01T01:57:10;23.37;;;11.00;;
19111;SDS011;9688;51.906;8.376;2022-08-01T02:00:18;23.23;;;10.43;;
19111;SDS011;9688;51.906;8.376;2022-08-01T02:03:23;17.93;;;9.87;;
19111;SDS011;9688;51.906;8.376;2022-08-01T02:06:30;15.47;;;9.83;;
19111;SDS011;9688;51.906;8.376;2022-08-01T02:09:37;14.73;;;9.33;;
19111;SDS011;9688;51.906;8.376;2022-08-01T02:12:43;15.03;;;9.77;;
19111;SDS011;9688;51.906;8.376;2022-08-01T02:15:51;18.03;;;9.20;;
19111;SDS011;9688;51.906;8.376;2022-08-01T02:18:56;12.73;;;8.13;;
19111;SDS011;9688;51.906;8.376;2022-08-01T02:22:01;15.03;;;7.40;;
19111;SDS011;9688;51.906;8.376;2022-08-01T02:25:15;14.37;;;8.03;;
19111;SDS011;9688;51.906;8.376;2022-08-01T02:28:28;11.23;;;7.40;;
19111;SDS011;9688;51.906;8.376;2022-08-01T02:31:39;11.37;;;8.00;;
19111;SDS011;9688;51.906;8.376;2022-08-01T02:34:49;10.10;;;6.37;;
19111;SDS011;9688;51.906;8.376;2022-08-01T02:37:56;7.67;;;6.37;;
19111;SDS011;9688;51.906;8.376;2022-08-01T02:41:03;11.77;;;6.43;;
19111;SDS011;9688;51.906;8.376;2022-08-01T02:44:14;12.87;;;6.87;;
19111;SDS011;9688;51.906;8.376;2022-08-01T02:47:27;9.47;;;6.13;;
19111;SDS011;9688;51.906;8.376;2022-08-01T02:50:33;7.97;;;5.97;;
19111;SDS011;9688;51.906;8.376;2022-08-01T02:53:38;10.73;;;6.07;;
19111;SDS011;9688;51.906;8.376;2022-08-01T02:56:46;7.90;;;5.67;;
19111;SDS011;9688;51.906;8.376;2022-08-01T02:59:52;7.67;;;5.57;;
19111;SDS011;9688;51.906;8.376;2022-08-01T03:03:01;11.60;;;5.43;;
19111;SDS011;9688;51.906;8.376;2022-08-01T03:06:07;7.43;;;5.30;;
19111;SDS011;9688;51.906;8.376;2022-08-01T03:09:13;9.97;;;5.00;;
19111;SDS011;9688;51.906;8.376;2022-08-01T03:12:20;7.27;;;5.07;;
19111;SDS011;9688;51.906;8.376;2022-08-01T03:15:30;8.87;;;5.97;;
19111;SDS011;9688;51.906;8.376;2022-08-01T03:18:38;10.97;;;5.30;;
19111;SDS011;9688;51.906;8.376;2022-08-01T03:21:47;11.07;;;5.23;;
19111;SDS011;9688;51.906;8.376;2022-08-01T03:24:53;8.50;;;5.80;;
19111;SDS011;9688;51.906;8.376;2022-08-01T03:28:01;6.63;;;5.20;;
19111;SDS011;9688;51.906;8.376;2022-08-01T03:31:08;9.50;;;4.90;;
19111;SDS011;9688;51.906;8.376;2022-08-01T03:34:15;10.07;;;5.53;;
19111;SDS011;9688;51.906;8.376;2022-08-01T03:37:24;9.07;;;5.90;;
19111;SDS011;9688;51.906;8.376;2022-08-01T03:40:31;8.47;;;5.93;;
19111;SDS011;9688;51.906;8.376;2022-08-01T03:43:43;10.63;;;6.67;;
19111;SDS011;9688;51.906;8.376;2022-08-01T03:46:54;13.10;;;6.60;;
19111;SDS011;9688;51.906;8.376;2022-08-01T03:50:05;11.17;;;6.73;;
19111;SDS011;9688;51.906;8.376;2022-08-01T03:53:13;9.87;;;7.27;;
19111;SDS011;9688;51.906;8.376;2022-08-01T03:56:19;18.30;;;6.83;;
19111;SDS011;9688;51.906;8.376;2022-08-01T03:59:26;10.50;;;7.07;;
19111;SDS011;9688;51.906;8.376;2022-08-01T04:02:31;12.20;;;7.43;;
19111;SDS011;9688;51.906;8.376;2022-08-01T04:05:38;11.47;;;7.03;;
19111;SDS011;9688;51.906;8.376;2022-08-01T04:08:44;9.17;;;6.47;;
19111;SDS011;9688;51.906;8.376;2022-08-01T04:11:58;11.90;;;7.03;;
19111;SDS011;9688;51.906;8.376;2022-08-01T04:15:04;10.57;;;6.73;;
19111;SDS011;9688;51.906;8.376;2022-08-01T04:18:09;12.33;;;6.87;;
19111;SDS011;9688;51.906;8.376;2022-08-01T04:21:15;14.70;;;7.20;;
19111;SDS011;9688;51.906;8.376;2022-08-01T04:24:25;16.07;;;6.80;;
19111;SDS011;9688;51.906;8.376;2022-08-01T04:27:34;10.83;;;6.87;;
19111;SDS011;9688;51.906;8.376;2022-08-01T04:30:41;9.40;;;6.47;;
19111;SDS011;9688;51.906;8.376;2022-08-01T04:33:49;9.77;;;6.83;;
19111;SDS011;9688;51.906;8.376;2022-08-01T04:36:59;12.10;;;6.50;;
19111;SDS011;9688;51.906;8.376;2022-08-01T04:40:06;11.10;;;6.80;;
19111;SDS011;9688;51.906;8.376;2022-08-01T04:43:12;16.13;;;7.33;;
19111;SDS011;9688;51.906;8.376;2022-08-01T04:46:17;19.00;;;7.33;;
19111;SDS011;9688;51.906;8.376;2022-08-01T04:49:22;12.47;;;7.07;;
19111;SDS011;9688;51.906;8.376;2022-08-01T04:52:33;12.03;;;6.87;;
19111;SDS011;9688;51.906;8.376;2022-08-01T04:55:39;14.00;;;7.87;;
19111;SDS011;9688;51.906;8.376;2022-08-01T04:58:44;13.47;;;7.77;;
19111;SDS011;9688;51.906;8.376;2022-08-01T05:01:49;15.30;;;7.83;;
19111;SDS011;9688;51.906;8.376;2022-08-01T05:04:54;16.67;;;7.97;;
19111;SDS011;9688;51.906;8.376;2022-08-01T05:08:01;11.37;;;7.33;;
19111;SDS011;9688;51.906;8.376;2022-08-01T05:11:05;12.63;;;7.93;;
19111;SDS011;9688;51.906;8.376;2022-08-01T05:14:10;13.23;;;7.77;;
19111;SDS011;9688;51.906;8.376;2022-08-01T05:17:14;21.17;;;8.60;;
19111;SDS011;9688;51.906;8.376;2022-08-01T05:20:19;15.63;;;7.70;;
19111;SDS011;9688;51.906;8.376;2022-08-01T05:23:25;12.87;;;7.20;;
19111;SDS011;9688;51.906;8.376;2022-08-01T05:26:30;14.13;;;7.27;;
19111;SDS011;9688;51.906;8.376;2022-08-01T05:29:35;13.40;;;6.90;;
19111;SDS011;9688;51.906;8.376;2022-08-01T05:32:40;9.70;;;6.77;;
19111;SDS011;9688;51.906;8.376;2022-08-01T05:35:44;10.60;;;6.10;;
19111;SDS011;9688;51.906;8.376;2022-08-01T05:38:50;8.50;;;6.00;;
19111;SDS011;9688;51.906;8.376;2022-08-01T05:41:55;6.40;;;5.33;;
19111;SDS011;9688;51.906;8.376;2022-08-01T05:44:59;10.87;;;5.47;;
19111;SDS011;9688;51.906;8.376;2022-08-01T05:48:04;6.80;;;5.03;;
19111;SDS011;9688;51.906;8.376;2022-08-01T05:51:10;10.57;;;6.37;;
19111;SDS011;9688;51.906;8.376;2022-08-01T05:54:16;8.93;;;5.50;;
19111;SDS011;9688;51.906;8.376;2022-08-01T05:57:20;8.47;;;5.97;;
19111;SDS011;9688;51.906;8.376;2022-08-01T06:00:25;9.03;;;6.33;;
19111;SDS011;9688;51.906;8.376;2022-08-01T06:03:29;10.00;;;7.10;;
19111;SDS011;9688;51.906;8.376;2022-08-01T06:06:36;10.77;;;6.63;;
19111;SDS011;9688;51.906;8.376;2022-08-01T06:09:42;10.07;;;6.57;;
19111;SDS011;9688;51.906;8.376;2022-08-01T06:12:47;9.03;;;6.60;;
19111;SDS011;9688;51.906;8.376;2022-08-01T06:15:52;8.67;;;6.47;;
19111;SDS011;9688;51.906;8.376;2022-08-01T06:18:57;7.60;;;6.47;;
19111;SDS011;9688;51.906;8.376;2022-08-01T06:22:01;8.27;;;7.00;;
19111;SDS011;9688;51.906;8.376;2022-08-01T06:25:09;10.87;;;6.87;;
19111;SDS011;9688;51.906;8.376;2022-08-01T06:28:14;8.13;;;6.47;;
19111;SDS011;9688;51.906;8.376;2022-08-01T06:31:19;9.50;;;6.70;;
19111;SDS011;9688;51.906;8.376;2022-08-01T06:34:24;12.13;;;7.40;;
19111;SDS011;9688;51.906;8.376;2022-08-01T06:37:29;9.00;;;6.07;;
19111;SDS011;9688;51.906;8.376;2022-08-01T06:40:35;7.60;;;6.07;;
19111;SDS011;9688;51.906;8.376;2022-08-01T06:43:41;7.63;;;6.03;;
19111;SDS011;9688;51.906;8.376;2022-08-01T06:46:46;7.80;;;6.23;;
19111;SDS011;9688;51.906;8.376;2022-08-01T06:49:50;8.33;;;5.97;;
19111;SDS011;9688;51.906;8.376;2022-08-01T06:52:57;8.47;;;6.13;;
19111;SDS011;9688;51.906;8.376;2022-08-01T06:56:04;8.73;;;6.07;;
19111;SDS011;9688;51.906;8.376;2022-08-01T06:59:11;7.53;;;5.73;;
19111;SDS011;9688;51.906;8.376;2022-08-01T07:02:17;10.70;;;6.03;;
19111;SDS011;9688;51.906;8.376;2022-08-01T07:05:22;7.57;;;6.10;;
19111;SDS011;9688;51.906;8.376;2022-08-01T07:08:28;6.17;;;5.53;;
19111;SDS011;9688;51.906;8.376;2022-08-01T07:11:34;5.40;;;4.90;;
19111;SDS011;9688;51.906;8.376;2022-08-01T07:14:40;5.47;;;4.87;;
19111;SDS011;9688;51.906;8.376;2022-08-01T07:17:46;7.07;;;5.37;;
19111;SDS011;9688;51.906;8.376;2022-08-01T07:20:51;6.07;;;4.50;;
19111;SDS011;9688;51.906;8.376;2022-08-01T07:23:55;5.13;;;4.43;;
19111;SDS011;9688;51.906;8.376;2022-08-01T07:27:02;4.33;;;4.00;;
19111;SDS011;9688;51.906;8.376;2022-08-01T07:30:09;4.20;;;3.80;;
19111;SDS011;9688;51.906;8.376;2022-08-01T07:33:14;3.60;;;3.30;;
19111;SDS011;9688;51.906;8.376;2022-08-01T07:36:19;4.60;;;3.70;;
19111;SDS011;9688;51.906;8.376;2022-08-01T07:39:24;3.50;;;3.23;;
19111;SDS011;9688;51.906;8.376;2022-08-01T07:42:31;4.67;;;3.60;;
19111;SDS011;9688;51.906;8.376;2022-08-01T07:45:36;6.47;;;4.90;;
19111;SDS011;9688;51.906;8.376;2022-08-01T07:48:41;5.53;;;4.27;;
19111;SDS011;9688;51.906;8.376;2022-08-01T07:51:47;4.60;;;4.20;;
19111;SDS011;9688;51.906;8.376;2022-08-01T07:54:52;4.83;;;4.33;;
19111;SDS011;9688;51.906;8.376;2022-08-01T07:58:01;4.07;;;3.70;;
19111;SDS011;9688;51.906;8.376;2022-08-01T08:01:08;4.37;;;3.50;;
19111;SDS011;9688;51.906;8.376;2022-08-01T08:04:14;3.70;;;3.40;;
19111;SDS011;9688;51.906;8.376;2022-08-01T08:07:19;4.63;;;3.57;;
19111;SDS011;9688;51.906;8.376;2022-08-01T08:10:25;4.13;;;2.90;;
19111;SDS011;9688;51.906;8.376;2022-08-01T08:13:35;3.43;;;2.93;;
19111;SDS011;9688;51.906;8.376;2022-08-01T08:16:39;2.80;;;2.60;;
19111;SDS011;9688;51.906;8.376;2022-08-01T08:19:44;3.10;;;2.90;;
19111;SDS011;9688;51.906;8.376;2022-08-01T08:22:49;2.43;;;2.23;;
19111;SDS011;9688;51.906;8.376;2022-08-01T08:25:54;1.57;;;1.50;;
19111;SDS011;9688;51.906;8.376;2022-08-01T08:28:59;1.47;;;1.47;;
19111;SDS011;9688;51.906;8.376;2022-08-01T08:32:06;1.60;;;1.50;;
19111;SDS011;9688;51.906;8.376;2022-08-01T08:35:11;1.50;;;1.50;;
19111;SDS011;9688;51.906;8.376;2022-08-01T08:38:16;1.60;;;1.50;;
19111;SDS011;9688;51.906;8.376;2022-08-01T08:41:21;1.90;;;1.80;;
19111;SDS011;9688;51.906;8.376;2022-08-01T08:44:27;1.77;;;1.40;;
19111;SDS011;9688;51.906;8.376;2022-08-01T08:47:32;3.73;;;2.00;;
19111;SDS011;9688;51.906;8.376;2022-08-01T08:50:38;2.00;;;1.90;;
19111;SDS011;9688;51.906;8.376;2022-08-01T08:53:45;1.83;;;1.60;;
19111;SDS011;9688;51.906;8.376;2022-08-01T08:56:53;2.47;;;1.80;;
19111;SDS011;9688;51.906;8.376;2022-08-01T08:59:59;1.90;;;1.80;;
19111;SDS011;9688;51.906;8.376;2022-08-01T09:03:12;1.77;;;1.67;;
19111;SDS011;9688;51.906;8.376;2022-08-01T09:06:17;1.80;;;1.70;;
19111;SDS011;9688;51.906;8.376;2022-08-01T09:09:21;1.63;;;1.53;;
19111;SDS011;9688;51.906;8.376;2022-08-01T09:12:26;1.73;;;1.50;;
19111;SDS011;9688;51.906;8.376;2022-08-01T09:15:40;1.70;;;1.70;;
19111;SDS011;9688;51.906;8.376;2022-08-01T09:18:47;2.00;;;1.90;;
19111;SDS011;9688;51.906;8.376;2022-08-01T09:21:55;3.20;;;1.70;;
19111;SDS011;9688;51.906;8.376;2022-08-01T09:25:03;1.95;;;1.67;;
19111;SDS011;9688;51.906;8.376;2022-08-01T09:28:10;2.03;;;1.90;;
19111;SDS011;9688;51.906;8.376;2022-08-01T09:31:18;1.73;;;1.67;;
19111;SDS011;9688;51.906;8.376;2022-08-01T09:34:24;1.80;;;1.70;;
19111;SDS011;9688;51.906;8.376;2022-08-01T09:37:31;3.97;;;2.40;;
19111;SDS011;9688;51.906;8.376;2022-08-01T09:40:44;2.20;;;2.10;;
19111;SDS011;9688;51.906;8.376;2022-08-01T09:43:50;2.85;;;2.60;;
19111;SDS011;9688;51.906;8.376;2022-08-01T09:46:56;4.53;;;2.95;;
19111;SDS011;9688;51.906;8.376;2022-08-01T09:50:00;2.50;;;2.40;;
19111;SDS011;9688;51.906;8.376;2022-08-01T09:53:09;2.92;;;2.33;;
19111;SDS011;9688;51.906;8.376;2022-08-01T09:56:15;3.03;;;2.85;;
19111;SDS011;9688;51.906;8.376;2022-08-01T09:59:19;2.60;;;2.50;;
19111;SDS011;9688;51.906;8.376;2022-08-01T10:02:30;4.00;;;3.10;;
19111;SDS011;9688;51.906;8.376;2022-08-01T10:05:35;3.27;;;3.07;;
19111;SDS011;9688;51.906;8.376;2022-08-01T10:08:45;4.20;;;3.90;;
19111;SDS011;9688;51.906;8.376;2022-08-01T10:11:50;4.18;;;3.80;;
19111;SDS011;9688;51.906;8.376;2022-08-01T10:14:56;3.63;;;3.33;;
19111;SDS011;9688;51.906;8.376;2022-08-01T10:18:04;5.95;;;4.40;;
19111;SDS011;9688;51.906;8.376;2022-08-01T10:21:09;4.30;;;3.83;;
19111;SDS011;9688;51.906;8.376;2022-08-01T10:24:16;5.00;;;4.50;;
19111;SDS011;9688;51.906;8.376;2022-08-01T10:27:21;6.60;;;4.23;;
19111;SDS011;9688;51.906;8.376;2022-08-01T10:30:27;4.20;;;3.90;;
19111;SDS011;9688;51.906;8.376;2022-08-01T10:33:34;4.27;;;3.93;;
19111;SDS011;9688;51.906;8.376;2022-08-01T10:36:42;4.70;;;4.30;;
19111;SDS011;9688;51.906;8.376;2022-08-01T10:39:48;5.20;;;4.13;;
19111;SDS011;9688;51.906;8.376;2022-08-01T10:42:55;4.40;;;4.10;;
19111;SDS011;9688;51.906;8.376;2022-08-01T10:46:00;7.10;;;5.20;;
19111;SDS011;9688;51.906;8.376;2022-08-01T10:49:11;7.13;;;4.73;;
19111;SDS011;9688;51.906;8.376;2022-08-01T10:52:20;4.80;;;3.97;;
19111;SDS011;9688;51.906;8.376;2022-08-01T10:55:26;5.80;;;4.50;;
19111;SDS011;9688;51.906;8.376;2022-08-01T10:58:34;4.90;;;4.40;;
19111;SDS011;9688;51.906;8.376;2022-08-01T11:01:41;3.78;;;3.47;;
19111;SDS011;9688;51.906;8.376;2022-08-01T11:04:49;4.13;;;3.73;;
19111;SDS011;9688;51.906;8.376;2022-08-01T11:08:03;4.40;;;4.00;;
19111;SDS011;9688;51.906;8.376;2022-08-01T11:11:14;5.90;;;4.70;;
19111;SDS011;9688;51.906;8.376;2022-08-01T11:14:20;4.83;;;4.37;;
19111;SDS011;9688;51.906;8.376;2022-08-01T11:17:31;6.70;;;4.30;;
19111;SDS011;9688;51.906;8.376;2022-08-01T11:20:39;5.90;;;4.50;;
19111;SDS011;9688;51.906;8.376;2022-08-01T11:24:00;4.43;;;4.03;;
19111;SDS011;9688;51.906;8.376;2022-08-01T11:27:17;5.67;;;5.17;;
19111;SDS011;9688;51.906;8.376;2022-08-01T11:30:24;5.97;;;4.70;;
19111;SDS011;9688;51.906;8.376;2022-08-01T11:37:04;4.93;;;4.53;;
19111;SDS011;9688;51.906;8.376;2022-08-01T11:40:28;8.27;;;5.60;;
19111;SDS011;9688;51.906;8.376;2022-08-01T11:43:33;5.23;;;4.60;;
19111;SDS011;9688;51.906;8.376;2022-08-01T11:46:45;5.03;;;4.53;;
19111;SDS011;9688;51.906;8.376;2022-08-01T11:49:54;4.50;;;2.60;;
19111;SDS011;9688;51.906;8.376;2022-08-01T11:53:03;4.60;;;4.07;;
19111;SDS011;9688;51.906;8.376;2022-08-01T11:56:11;4.67;;;3.43;;
19111;SDS011;9688;51.906;8.376;2022-08-01T11:59:17;4.20;;;3.87;;
19111;SDS011;9688;51.906;8.376;2022-08-01T12:02:22;7.73;;;6.80;;
19111;SDS011;9688;51.906;8.376;2022-08-01T12:05:29;4.73;;;4.20;;
19111;SDS011;9688;51.906;8.376;2022-08-01T12:08:37;4.83;;;4.43;;
19111;SDS011;9688;51.906;8.376;2022-08-01T12:11:42;6.47;;;4.83;;
19111;SDS011;9688;51.906;8.376;2022-08-01T12:14:52;5.37;;;3.90;;
19111;SDS011;9688;51.906;8.376;2022-08-01T12:17:59;3.30;;;3.10;;
19111;SDS011;9688;51.906;8.376;2022-08-01T12:21:05;6.63;;;3.10;;
19111;SDS011;9688;51.906;8.376;2022-08-01T12:24:11;4.37;;;3.30;;
19111;SDS011;9688;51.906;8.376;2022-08-01T12:27:23;4.77;;;3.40;;
19111;SDS011;9688;51.906;8.376;2022-08-01T12:30:28;5.05;;;3.92;;
19111;SDS011;9688;51.906;8.376;2022-08-01T12:33:38;4.47;;;4.10;;
19111;SDS011;9688;51.906;8.376;2022-08-01T12:36:43;5.83;;;3.53;;
19111;SDS011;9688;51.906;8.376;2022-08-01T12:39:50;2.07;;;1.97;;
19111;SDS011;9688;51.906;8.376;2022-08-01T12:42:56;2.80;;;2.60;;
19111;SDS011;9688;51.906;8.376;2022-08-01T12:46:01;2.90;;;2.63;;
19111;SDS011;9688;51.906;8.376;2022-08-01T12:49:07;2.90;;;2.60;;
19111;SDS011;9688;51.906;8.376;2022-08-01T12:52:12;2.63;;;2.50;;
19111;SDS011;9688;51.906;8.376;2022-08-01T12:55:19;3.80;;;3.50;;
19111;SDS011;9688;51.906;8.376;2022-08-01T12:58:30;4.17;;;3.83;;
19111;SDS011;9688;51.906;8.376;2022-08-01T13:01:35;3.73;;;3.27;;
19111;SDS011;9688;51.906;8.376;2022-08-01T13:04:48;3.60;;;3.30;;
19111;SDS011;9688;51.906;8.376;2022-08-01T13:07:54;4.00;;;3.57;;
19111;SDS011;9688;51.906;8.376;2022-08-01T13:11:03;3.77;;;3.33;;
19111;SDS011;9688;51.906;8.376;2022-08-01T13:14:25;5.03;;;4.00;;
19111;SDS011;9688;51.906;8.376;2022-08-01T13:17:31;5.43;;;4.07;;
19111;SDS011;9688;51.906;8.376;2022-08-01T13:20:38;6.50;;;4.90;;
19111;SDS011;9688;51.906;8.376;2022-08-01T13:27:08;4.97;;;4.50;;
19111;SDS011;9688;51.906;8.376;2022-08-01T13:30:28;7.67;;;5.07;;
19111;SDS011;9688;51.906;8.376;2022-08-01T13:33:41;6.53;;;4.17;;
19111;SDS011;9688;51.906;8.376;2022-08-01T13:36:48;7.80;;;4.43;;
19111;SDS011;9688;51.906;8.376;2022-08-01T13:39:52;6.53;;;4.60;;
19111;SDS011;9688;51.906;8.376;2022-08-01T13:43:00;5.60;;;3.97;;
19111;SDS011;9688;51.906;8.376;2022-08-01T13:46:05;3.60;;;2.87;;
19111;SDS011;9688;51.906;8.376;2022-08-01T13:49:09;2.50;;;2.30;;
19111;SDS011;9688;51.906;8.376;2022-08-01T13:52:15;14.35;;;9.10;;
19111;SDS011;9688;51.906;8.376;2022-08-01T13:55:20;7.43;;;5.45;;
19111;SDS011;9688;51.906;8.376;2022-08-01T13:58:26;3.70;;;3.42;;
19111;SDS011;9688;51.906;8.376;2022-08-01T14:01:31;4.57;;;2.70;;
19111;SDS011;9688;51.906;8.376;2022-08-01T14:04:36;4.35;;;3.75;;
19111;SDS011;9688;51.906;8.376;2022-08-01T14:07:42;4.90;;;3.37;;
19111;SDS011;9688;51.906;8.376;2022-08-01T14:10:47;4.18;;;3.10;;
19111;SDS011;9688;51.906;8.376;2022-08-01T14:13:53;4.72;;;3.20;;
19111;SDS011;9688;51.906;8.376;2022-08-01T14:16:58;4.68;;;3.00;;
19111;SDS011;9688;51.906;8.376;2022-08-01T14:20:04;3.22;;;3.00;;
19111;SDS011;9688;51.906;8.376;2022-08-01T14:23:10;6.30;;;3.67;;
19111;SDS011;9688;51.906;8.376;2022-08-01T14:26:14;3.13;;;2.80;;
19111;SDS011;9688;51.906;8.376;2022-08-01T14:29:24;6.70;;;3.17;;
19111;SDS011;9688;51.906;8.376;2022-08-01T14:32:39;2.75;;;2.45;;
19111;SDS011;9688;51.906;8.376;2022-08-01T14:35:49;3.60;;;2.88;;
19111;SDS011;9688;51.906;8.376;2022-08-01T14:38:54;3.60;;;3.30;;
19111;SDS011;9688;51.906;8.376;2022-08-01T14:41:58;4.97;;;3.40;;
19111;SDS011;9688;51.906;8.376;2022-08-01T14:45:05;3.50;;;3.20;;
19111;SDS011;9688;51.906;8.376;2022-08-01T14:48:13;5.28;;;3.03;;
19111;SDS011;9688;51.906;8.376;2022-08-01T14:51:18;5.28;;;2.70;;
19111;SDS011;9688;51.906;8.376;2022-08-01T14:54:23;4.78;;;2.85;;
19111;SDS011;9688;51.906;8.376;2022-08-01T14:57:31;3.17;;;2.85;;
19111;SDS011;9688;51.906;8.376;2022-08-01T15:00:41;5.40;;;3.00;;
19111;SDS011;9688;51.906;8.376;2022-08-01T15:03:46;6.85;;;2.88;;
19111;SDS011;9688;51.906;8.376;2022-08-01T15:06:52;3.85;;;2.63;;
19111;SDS011;9688;51.906;8.376;2022-08-01T15:09:58;3.40;;;3.10;;
19111;SDS011;9688;51.906;8.376;2022-08-01T15:13:07;6.20;;;3.10;;
19111;SDS011;9688;51.906;8.376;2022-08-01T15:16:13;4.43;;;3.03;;
19111;SDS011;9688;51.906;8.376;2022-08-01T15:19:19;5.05;;;2.63;;
19111;SDS011;9688;51.906;8.376;2022-08-01T15:22:26;8.48;;;2.70;;
19111;SDS011;9688;51.906;8.376;2022-08-01T15:25:33;6.80;;;2.95;;
19111;SDS011;9688;51.906;8.376;2022-08-01T15:28:39;3.13;;;2.60;;
19111;SDS011;9688;51.906;8.376;2022-08-01T15:31:49;4.45;;;2.63;;
19111;SDS011;9688;51.906;8.376;2022-08-01T15:35:00;4.60;;;3.33;;
19111;SDS011;9688;51.906;8.376;2022-08-01T15:38:14;4.40;;;2.53;;
19111;SDS011;9688;51.906;8.376;2022-08-01T15:41:19;5.75;;;2.72;;
19111;SDS011;9688;51.906;8.376;2022-08-01T15:44:24;2.58;;;2.38;;
19111;SDS011;9688;51.906;8.376;2022-08-01T15:47:31;3.08;;;2.50;;
19111;SDS011;9688;51.906;8.376;2022-08-01T15:50:37;4.82;;;2.20;;
19111;SDS011;9688;51.906;8.376;2022-08-01T15:53:42;2.72;;;2.47;;
19111;SDS011;9688;51.906;8.376;2022-08-01T15:56:49;3.38;;;2.45;;
19111;SDS011;9688;51.906;8.376;2022-08-01T15:59:54;4.57;;;2.40;;
19111;SDS011;9688;51.906;8.376;2022-08-01T16:03:01;2.97;;;2.22;;
19111;SDS011;9688;51.906;8.376;2022-08-01T16:06:06;2.70;;;2.38;;
19111;SDS011;9688;51.906;8.376;2022-08-01T16:09:12;6.40;;;2.40;;
19111;SDS011;9688;51.906;8.376;2022-08-01T16:12:20;3.35;;;2.47;;
19111;SDS011;9688;51.906;8.376;2022-08-01T16:15:25;5.70;;;2.10;;
19111;SDS011;9688;51.906;8.376;2022-08-01T16:18:31;4.53;;;2.30;;
19111;SDS011;9688;51.906;8.376;2022-08-01T16:21:37;5.25;;;2.95;;
19111;SDS011;9688;51.906;8.376;2022-08-01T16:24:43;4.05;;;2.42;;
19111;SDS011;9688;51.906;8.376;2022-08-01T16:27:48;4.97;;;2.80;;
19111;SDS011;9688;51.906;8.376;2022-08-01T16:30:53;2.90;;;2.35;;
19111;SDS011;9688;51.906;8.376;2022-08-01T16:34:00;3.45;;;2.40;;
19111;SDS011;9688;51.906;8.376;2022-08-01T16:37:06;5.22;;;2.75;;
19111;SDS011;9688;51.906;8.376;2022-08-01T16:40:10;4.30;;;2.20;;
19111;SDS011;9688;51.906;8.376;2022-08-01T16:43:19;5.63;;;2.65;;
19111;SDS011;9688;51.906;8.376;2022-08-01T16:46:24;7.47;;;2.60;;
19111;SDS011;9688;51.906;8.376;2022-08-01T16:49:30;5.35;;;2.97;;
19111;SDS011;9688;51.906;8.376;2022-08-01T16:52:35;5.88;;;2.75;;
19111;SDS011;9688;51.906;8.376;2022-08-01T16:55:39;6.57;;;2.70;;
19111;SDS011;9688;51.906;8.376;2022-08-01T16:58:44;5.93;;;2.70;;
19111;SDS011;9688;51.906;8.376;2022-08-01T17:01:49;6.47;;;2.70;;
19111;SDS011;9688;51.906;8.376;2022-08-01T17:04:57;4.88;;;2.50;;
19111;SDS011;9688;51.906;8.376;2022-08-01T17:08:03;3.17;;;2.47;;
19111;SDS011;9688;51.906;8.376;2022-08-01T17:11:14;7.97;;;3.13;;
19111;SDS011;9688;51.906;8.376;2022-08-01T17:14:20;3.25;;;2.67;;
19111;SDS011;9688;51.906;8.376;2022-08-01T17:17:24;9.05;;;3.00;;
19111;SDS011;9688;51.906;8.376;2022-08-01T17:20:30;6.25;;;2.78;;
19111;SDS011;9688;51.906;8.376;2022-08-01T17:23:34;9.55;;;2.90;;
19111;SDS011;9688;51.906;8.376;2022-08-01T17:26:40;4.97;;;2.60;;
19111;SDS011;9688;51.906;8.376;2022-08-01T17:29:44;6.83;;;2.87;;
19111;SDS011;9688;51.906;8.376;2022-08-01T17:32:49;4.82;;;2.95;;
19111;SDS011;9688;51.906;8.376;2022-08-01T17:35:55;4.18;;;2.55;;
19111;SDS011;9688;51.906;8.376;2022-08-01T17:39:00;5.93;;;2.93;;
19111;SDS011;9688;51.906;8.376;2022-08-01T17:42:07;8.20;;;2.70;;
19111;SDS011;9688;51.906;8.376;2022-08-01T17:45:13;6.77;;;3.07;;
19111;SDS011;9688;51.906;8.376;2022-08-01T17:48:17;6.82;;;3.35;;
19111;SDS011;9688;51.906;8.376;2022-08-01T17:51:24;6.10;;;2.67;;
19111;SDS011;9688;51.906;8.376;2022-08-01T17:54:30;5.97;;;2.87;;
19111;SDS011;9688;51.906;8.376;2022-08-01T17:57:36;6.22;;;3.20;;
19111;SDS011;9688;51.906;8.376;2022-08-01T18:00:41;9.50;;;2.77;;
19111;SDS011;9688;51.906;8.376;2022-08-01T18:03:46;6.47;;;2.80;;
19111;SDS011;9688;51.906;8.376;2022-08-01T18:06:52;7.03;;;3.50;;
19111;SDS011;9688;51.906;8.376;2022-08-01T18:09:57;14.47;;;3.77;;
19111;SDS011;9688;51.906;8.376;2022-08-01T18:13:04;9.40;;;3.07;;
19111;SDS011;9688;51.906;8.376;2022-08-01T18:16:10;4.38;;;2.95;;
19111;SDS011;9688;51.906;8.376;2022-08-01T18:19:15;5.37;;;3.00;;
19111;SDS011;9688;51.906;8.376;2022-08-01T18:22:24;4.83;;;2.40;;
19111;SDS011;9688;51.906;8.376;2022-08-01T18:25:29;10.03;;;2.87;;
19111;SDS011;9688;51.906;8.376;2022-08-01T18:28:35;8.20;;;2.87;;
19111;SDS011;9688;51.906;8.376;2022-08-01T18:31:45;5.37;;;3.23;;
19111;SDS011;9688;51.906;8.376;2022-08-01T18:34:50;7.57;;;3.10;;
19111;SDS011;9688;51.906;8.376;2022-08-01T18:37:55;5.50;;;2.80;;
19111;SDS011;9688;51.906;8.376;2022-08-01T18:41:00;6.47;;;3.00;;
19111;SDS011;9688;51.906;8.376;2022-08-01T18:44:07;7.83;;;3.07;;
19111;SDS011;9688;51.906;8.376;2022-08-01T18:47:12;6.57;;;3.20;;
19111;SDS011;9688;51.906;8.376;2022-08-01T18:50:16;6.27;;;2.90;;
19111;SDS011;9688;51.906;8.376;2022-08-01T18:53:22;7.17;;;3.03;;
19111;SDS011;9688;51.906;8.376;2022-08-01T18:56:27;10.67;;;3.10;;
19111;SDS011;9688;51.906;8.376;2022-08-01T18:59:32;7.53;;;3.43;;
19111;SDS011;9688;51.906;8.376;2022-08-01T19:02:36;6.93;;;3.37;;